Terminal Aerodrome Forecast
Issued by NWS

Home | Current Version | Previous Version | Text Only | Print | Product List | Glossary Off
Versions: 1 2 3 4 5 6 7 8 9 10 11 12 13 14 15 16 17 18 19 20 21 22 23 24 25 26 27 28 29 30 31 32 33 34 35 36 37 38 39 40 41 42 43 44

451
FTUS43 KGRB 161723
TAFATW
TAF
KATW 161723Z 1618/1718 06010KT P6SM OVC017
     FM170000 05007KT P6SM OVC015
     FM170800 04005KT P6SM SCT006 OVC012
      TEMPO 1710/1714 5SM -FZDZ BR BKN006
     FM171400 08006KT 6SM BR SCT007 OVC015
      TEMPO 1714/1718 4SM -FZDZ BR BKN007=

USA.gov is the U.S. government's official web portal to all federal, state and local government web resources and services.